Latest Weather Observations for Lameroo AWS

IDS60801

Issued at 9:01 am CST Wednesday 25 May 2016 (issued every 30 minutes, with the page automatically refreshed every 10 minutes)

About weather observations | Map of weather stations | Latest weather observations for SA | Other Formats
Station Details ID: 025562 Name: AUSTIN PLAINS Lat: -35.38 Lon: 140.54 Height: 110.08 m
Data from the previous 72 hours. | See also: Recent months at Lameroo AWS
Date/Time
CST
Temp
°C
App
Temp
°C
Dew
Point
Rel
Hum
%
Delta-T
°C
Wind Press
QNH
hPa
Press
MSL
hPa
Rain
since 9 am
mm
Dir
 
Spd
km/h
Gust
km/h
Spd
kts
Gust
kts
25/09:00am 10.4 4.5 7.5 82 1.4 N 28 33 15 18 1013.6 1013.6 0.2
25/08:30am 10.2 5.1 7.6 84 1.3 N 24 32 13 17 1013.8 1013.7 0.2
25/08:00am 10.3 5.5 7.4 82 1.4 N 22 28 12 15 1013.6 1013.6 0.2
25/07:30am 9.7 5.4 6.8 82 1.4 N 19 24 10 13 1013.9 1013.8 0.2
25/07:00am 10.0 5.0 6.5 79 1.6 NNW 22 26 12 14 1014.2 1014.1 0.0
25/06:30am 10.2 4.2 5.2 71 2.3 NNW 26 33 14 18 1014.4 1014.4 0.0
25/06:00am 11.7 6.0 3.0 55 3.8 NNW 22 28 12 15 1013.9 1013.8 0.0
25/05:30am 12.2 6.7 2.1 50 4.4 N 20 28 11 15 1013.0 1013.0 0.0
25/05:00am 11.9 6.5 1.5 49 4.4 N 19 24 10 13 1013.6 1013.6 0.0
25/04:30am 12.1 6.5 1.4 48 4.6 N 20 26 11 14 1014.1 1014.0 0.0
25/04:00am 11.3 6.7 1.8 52 4.1 N 15 17 8 9 1014.0 1013.9 0.0
25/03:30am 11.2 5.7 1.7 52 4.0 N 20 26 11 14 1013.3 1013.3 0.0
25/03:00am 10.7 5.4 1.8 54 3.8 NNE 19 28 10 15 1013.4 1013.4 0.0
25/02:30am 10.3 5.4 1.9 56 3.6 NNE 17 20 9 11 1014.1 1014.0 0.0
25/02:00am 10.5 5.2 1.9 55 3.7 N 19 22 10 12 1014.8 1014.8 0.0
25/01:30am 11.2 5.9 2.0 53 3.9 N 19 24 10 13 1014.9 1014.9 0.0
25/01:00am 11.5 6.1 2.3 53 4.0 N 20 26 11 14 1015.1 1015.1 0.0
25/12:30am 11.3 5.9 2.6 55 3.8 N 20 24 11 13 1015.5 1015.5 0.0
25/12:00am 11.4 6.4 3.4 58 3.5 NNE 19 22 10 12 1016.0 1016.0 0.0
 
Date/Time
CST
Temp
°C
App
Temp
°C
Dew
Point
Rel
Hum
%
Delta-T
°C
Wind Press
QNH
hPa
Press
MSL
hPa
Rain
since 9 am
mm
Dir
 
Spd
km/h
Gust
km/h
Spd
kts
Gust
kts
24/11:30pm 11.6 6.5 4.1 60 3.4 NNE 20 26 11 14 1016.6 1016.6 0.0
24/11:00pm 11.2 6.7 4.4 63 3.1 NNE 17 20 9 11 1017.0 1017.0 0.0
24/10:30pm 10.7 6.2 4.4 65 2.8 NE 17 19 9 10 1017.3 1017.3 0.0
24/10:00pm 11.4 6.9 4.4 62 3.2 NNE 17 19 9 10 1017.5 1017.5 0.0
24/09:30pm 10.9 6.4 4.4 64 2.9 NE 17 20 9 11 1017.6 1017.6 0.0
24/09:00pm 10.8 6.4 4.5 65 2.8 NNE 17 19 9 10 1017.9 1017.9 0.0
24/08:30pm 10.6 6.5 4.3 65 2.8 NNE 15 17 8 9 1018.3 1018.3 0.0
24/08:00pm 9.0 4.8 3.8 70 2.3 NE 15 15 8 8 1018.2 1018.2 0.0
24/07:30pm 9.8 5.5 3.5 65 2.8 NE 15 17 8 9 1018.4 1018.4 0.0
24/07:00pm 10.2 6.3 3.5 63 2.9 NE 13 15 7 8 1018.4 1018.4 0.0
24/06:30pm 11.9 7.5 2.9 54 3.9 NNE 15 17 8 9 1018.5 1018.5 0.0
24/06:00pm 12.7 8.5 3.6 54 4.1 NNE 15 15 8 8 1018.7 1018.7 0.0
24/05:30pm 14.2 10.8 3.9 50 4.7 N 11 13 6 7 1018.5 1018.5 0.0
24/05:00pm 16.1 12.4 4.2 45 5.6 N 13 15 7 8 1018.4 1018.4 0.0
24/04:30pm 18.3 13.8 4.1 39 6.7 N 17 20 9 11 1018.3 1018.3 0.0
24/04:00pm 18.9 13.9 4.7 39 6.9 NNW 20 24 11 13 1018.5 1018.5 0.0
24/03:30pm 19.5 14.3 3.6 35 7.5 N 20 28 11 15 1018.7 1018.7 0.0
24/03:00pm 19.8 14.6 5.5 39 7.1 NNW 22 28 12 15 1018.8 1018.8 0.0
24/02:30pm 19.6 14.9 6.0 41 6.8 N 20 28 11 15 1018.7 1018.7 0.0
24/02:00pm 19.6 14.9 6.0 41 6.8 NNW 20 30 11 16 1019.4 1019.4 0.0
24/01:30pm 19.3 15.2 6.1 42 6.6 NNW 17 32 9 17 1019.7 1019.7 0.0
24/01:00pm 18.9 14.8 6.1 43 6.4 NNW 17 22 9 12 1020.3 1020.3 0.0
24/12:30pm 18.6 14.6 6.8 46 5.9 NNW 17 24 9 13 1020.8 1020.8 0.0
24/12:00pm 18.6 14.4 7.4 48 5.7 NNW 19 26 10 14 1021.5 1021.5 0.0
24/11:30am 17.9 15.1 8.7 55 4.8 NNW 13 20 7 11 1022.2 1022.3 0.0
24/11:00am 17.0 15.3 9.9 63 3.8 NNW 9 15 5 8 1022.8 1022.9 0.0
24/10:30am 16.0 14.5 10.5 70 2.9 NNW 9 13 5 7 1023.5 1023.5 0.0
24/10:00am 15.3 14.0 11.1 76 2.3 NW 9 13 5 7 1023.8 1023.8 0.0
24/09:30am 13.4 11.6 10.8 84 1.4 NNW 11 13 6 7 1023.8 1023.8 0.0
24/09:00am 10.8 9.0 10.8 100 0.0 NW 11 13 6 7 1024.1 1024.1 0.0
24/08:30am 8.9 - - - - NW 9 11 5 6 1023.9 1023.9 0.0
24/08:00am 7.8 - - - - NW 11 13 6 7 1023.7 1023.7 0.0
24/07:30am 7.0 5.0 7.0 100 0.0 NNW 7 9 4 5 1023.1 1023.2 0.0
24/07:00am 7.9 6.1 7.9 100 0.0 WNW 7 7 4 4 1022.5 1022.6 0.0
24/06:30am 7.2 4.8 7.2 100 0.0 NW 9 13 5 7 1022.5 1022.6 0.0
24/06:00am 7.6 4.6 7.6 100 0.0 NW 13 15 7 8 1022.2 1022.3 0.0
24/05:30am 7.2 4.8 7.2 100 0.0 NW 9 11 5 6 1022.0 1022.1 0.0
24/05:00am 7.1 4.0 7.1 100 0.0 NNW 13 15 7 8 1021.7 1021.7 0.0
24/04:30am 7.0 4.2 7.0 100 0.0 NW 11 13 6 7 1021.8 1021.9 0.0
24/04:00am 6.9 4.9 6.9 100 0.0 NW 7 9 4 5 1021.8 1021.9 0.0
24/03:30am 6.6 3.7 6.6 100 0.0 NNW 11 13 6 7 1022.0 1022.1 0.0
24/03:00am 6.8 4.0 6.8 100 0.0 NW 11 11 6 6 1022.3 1022.4 0.0
24/02:30am 6.4 3.5 6.4 100 0.0 WNW 11 13 6 7 1022.5 1022.6 0.0
24/02:00am 6.3 3.0 6.3 100 0.0 WNW 13 13 7 7 1022.7 1022.8 0.0
24/01:30am 6.7 3.5 6.7 100 0.0 NW 13 13 7 7 1022.8 1022.9 0.0
24/01:00am 6.9 3.8 5.7 92 0.5 WNW 11 13 6 7 1022.7 1022.8 0.0
24/12:30am 7.7 4.4 6.6 93 0.5 WNW 13 15 7 8 1022.6 1022.7 0.0
24/12:00am 7.8 4.9 6.6 92 0.6 WNW 11 13 6 7 1022.8 1022.9 0.0
 
Date/Time
CST
Temp
°C
App
Temp
°C
Dew
Point
Rel
Hum
%
Delta-T
°C
Wind Press
QNH
hPa
Press
MSL
hPa
Rain
since 9 am
mm
Dir
 
Spd
km/h
Gust
km/h
Spd
kts
Gust
kts
23/11:30pm 8.4 6.0 7.0 91 0.7 WNW 9 11 5 6 1022.8 1022.9 0.0
23/11:00pm 8.9 5.9 7.7 92 0.6 W 13 13 7 7 1023.0 1023.1 0.0
23/10:30pm 9.2 5.7 7.3 88 0.9 W 15 17 8 9 1023.4 1023.4 0.0
23/10:00pm 9.6 5.8 7.7 88 0.9 W 17 19 9 10 1023.3 1023.3 0.0
23/09:30pm 9.8 6.5 7.9 88 0.9 W 15 17 8 9 1023.6 1023.6 0.0
23/09:00pm 9.8 6.7 7.4 85 1.1 W 13 15 7 8 1023.7 1023.7 0.0
23/08:30pm 9.8 7.0 6.9 82 1.4 WSW 11 13 6 7 1023.5 1023.5 0.0
23/08:00pm 10.2 7.9 7.3 82 1.4 W 9 11 5 6 1023.3 1023.3 0.0
23/07:30pm 11.1 8.9 8.0 81 1.5 WSW 9 11 5 6 1023.0 1023.1 0.0
23/07:00pm 11.1 8.6 8.0 81 1.5 W 11 13 6 7 1022.6 1022.7 0.0
23/06:30pm 11.4 8.7 7.3 76 2.0 WSW 11 11 6 6 1022.6 1022.7 0.0
23/06:00pm 12.8 9.8 7.7 71 2.5 WSW 13 17 7 9 1022.3 1022.4 0.0
23/05:30pm 13.5 10.4 7.1 65 3.1 WSW 13 15 7 8 1022.0 1022.1 0.0
23/05:00pm 15.6 11.2 7.4 58 4.1 W 20 22 11 12 1021.8 1021.9 0.0
23/04:30pm 17.0 12.1 7.1 52 4.9 W 22 28 12 15 1021.6 1021.6 0.0
23/04:00pm 17.8 11.6 6.3 47 5.7 WSW 28 35 15 19 1021.4 1021.4 0.0
23/03:30pm 18.1 11.2 6.3 46 5.8 WSW 32 39 17 21 1021.3 1021.3 0.0
23/03:00pm 18.5 11.3 5.7 43 6.3 WSW 33 44 18 24 1021.1 1021.1 0.0
23/02:30pm 18.3 11.4 7.1 48 5.6 W 33 41 18 22 1021.1 1021.1 0.0
23/02:00pm 18.0 10.5 6.5 47 5.7 W 35 46 19 25 1021.1 1021.1 0.0
23/01:30pm 17.6 10.7 7.1 50 5.3 W 33 43 18 23 1021.2 1021.2 0.0
23/01:00pm 17.4 10.5 6.6 49 5.4 W 32 43 17 23 1021.2 1021.2 0.0
23/12:30pm 17.7 10.8 6.6 48 5.5 W 32 39 17 21 1021.2 1021.2 0.0
23/12:00pm 17.0 9.9 6.5 50 5.2 W 33 46 18 25 1021.7 1021.7 0.0
23/11:30am 16.7 10.2 6.5 51 5.0 W 30 37 16 20 1022.1 1022.2 0.0
23/11:00am 16.1 9.3 7.1 55 4.5 W 32 39 17 21 1022.6 1022.7 0.0
23/10:30am 15.5 9.2 7.3 58 4.1 W 30 37 16 20 1022.7 1022.8 0.0
23/10:00am 15.1 9.3 7.9 62 3.6 W 28 37 15 20 1022.9 1023.0 0.0
23/09:30am 13.9 9.0 8.3 69 2.8 WNW 24 32 13 17 1022.5 1022.6 0.0
23/09:00am 12.8 8.6 8.1 73 2.3 WNW 20 28 11 15 1022.4 1022.5 1.2
23/08:30am 11.2 7.4 7.5 78 1.8 WNW 17 22 9 12 1022.3 1022.4 1.2
23/08:00am 9.9 6.4 7.2 83 1.3 WNW 15 19 8 10 1022.0 1022.1 1.2
23/07:30am 8.0 4.6 6.0 87 0.9 NW 13 17 7 9 1021.7 1021.7 1.2
23/07:00am 9.0 3.5 5.9 81 1.4 W 24 32 13 17 1021.1 1021.1 1.2
23/06:30am 8.5 4.4 6.0 84 1.1 W 17 20 9 11 1020.6 1020.6 1.2
23/06:00am 8.1 4.4 6.2 88 0.9 W 15 17 8 9 1020.2 1020.2 1.2
23/05:30am 8.4 4.4 6.5 88 0.9 W 17 20 9 11 1020.1 1020.1 1.2
23/05:00am 8.5 4.5 6.6 88 0.9 W 17 20 9 11 1019.9 1019.9 1.2
23/04:30am 8.9 5.0 6.9 87 0.9 W 17 20 9 11 1019.1 1019.1 1.2
23/04:00am 9.7 5.2 7.1 84 1.2 WNW 20 24 11 13 1018.5 1018.5 1.2
23/03:30am 10.4 4.8 7.1 80 1.6 W 26 30 14 16 1018.1 1018.1 1.2
23/03:00am 10.5 5.3 7.2 80 1.6 W 24 30 13 16 1017.7 1017.7 1.2
23/02:30am 10.3 5.9 7.4 82 1.4 WNW 20 28 11 15 1017.5 1017.5 1.2
23/02:00am 10.6 5.9 7.8 83 1.4 WNW 22 28 12 15 1016.9 1016.9 1.2
23/01:30am 10.7 6.4 7.9 83 1.4 WNW 20 28 11 15 1016.6 1016.6 1.2
23/01:00am 11.4 6.1 8.4 82 1.5 WNW 26 32 14 17 1016.3 1016.3 1.2
23/12:30am 11.7 6.5 8.7 82 1.5 WNW 26 33 14 18 1015.9 1015.9 1.2
23/12:00am 12.0 6.6 9.4 84 1.3 WNW 28 33 15 18 1015.8 1015.8 1.2
 
Date/Time
CST
Temp
°C
App
Temp
°C
Dew
Point
Rel
Hum
%
Delta-T
°C
Wind Press
QNH
hPa
Press
MSL
hPa
Rain
since 9 am
mm
Dir
 
Spd
km/h
Gust
km/h
Spd
kts
Gust
kts
22/11:30pm 12.3 7.8 9.9 85 1.2 WNW 24 32 13 17 1015.3 1015.3 1.2
22/11:00pm 12.3 8.2 10.2 87 1.1 NW 22 28 12 15 1014.8 1014.8 1.2
22/10:30pm 12.6 9.6 10.8 89 0.9 NW 17 24 9 13 1014.5 1014.5 1.2
22/10:00pm 13.3 9.9 11.4 88 1.0 NW 20 24 11 13 1014.7 1014.7 1.2
22/09:30pm 13.9 9.3 11.2 84 1.4 WNW 26 33 14 18 1014.5 1014.5 1.2
22/09:00pm 13.8 8.8 11.0 83 1.5 W 28 37 15 20 1014.0 1013.9 1.0
22/08:30pm 13.6 7.9 11.0 84 1.4 W 32 41 17 22 1014.2 1014.1 1.0
22/08:03pm 15.2 8.6 11.4 78 2.0 W 37 67 20 36 1013.4 1013.4 0.8
22/08:00pm 15.9 10.6 12.5 80 1.9 W 32 44 17 24 1013.4 1013.4 0.8
22/07:30pm 16.9 14.0 13.0 78 2.2 WNW 20 28 11 15 1012.6 1012.6 0.8
22/07:00pm 16.7 15.0 13.6 82 1.8 NW 15 22 8 12 1012.1 1012.1 0.8
22/06:30pm 16.4 14.7 13.7 84 1.5 N 15 19 8 10 1011.6 1011.6 0.8
22/06:00pm 16.3 15.4 13.6 84 1.5 NNW 11 13 6 7 1011.3 1011.3 0.8
22/05:30pm 16.2 14.0 13.3 83 1.6 NNW 17 20 9 11 1011.1 1011.1 0.8
22/05:00pm 16.1 13.9 13.2 83 1.6 NNW 17 20 9 11 1011.0 1011.0 0.6
22/04:30pm 16.3 13.6 12.8 80 2.0 NW 19 22 10 12 1011.1 1011.1 0.4
22/04:00pm 17.1 14.6 12.2 73 2.7 NNW 17 24 9 13 1010.8 1010.8 0.2
22/03:30pm 16.8 13.0 12.5 76 2.4 WNW 24 30 13 16 1011.2 1011.2 0.0
22/03:02pm 18.3 9.9 10.9 62 4.0 W 46 67 25 36 1010.5 1010.5 0.0
22/03:00pm 18.8 9.1 10.6 59 4.4 W 52 67 28 36 1010.3 1010.3 0.0
22/02:50pm 23.2 13.7 6.9 35 8.5 WNW 46 72 25 39 1009.5 1009.5 0.0
22/02:39pm 24.8 17.2 5.6 29 9.8 NW 35 54 19 29 1009.5 1009.5 0.0
22/02:30pm 25.3 17.9 5.0 27 10.3 NW 33 46 18 25 1009.2 1009.2 0.0
22/02:00pm 25.4 17.6 5.1 27 10.3 NNW 35 46 19 25 1009.2 1009.2 0.0
22/01:30pm 25.2 17.0 4.9 27 10.3 NNW 37 48 20 26 1009.3 1009.3 0.0
22/01:00pm 25.2 15.9 4.9 27 10.3 N 43 57 23 31 1009.3 1009.3 0.0
22/12:30pm 25.6 16.9 5.8 28 10.2 N 41 52 22 28 1009.8 1009.8 0.0
22/12:00pm 24.9 14.7 5.2 28 10.0 N 48 61 26 33 1009.6 1009.6 0.0
22/11:30am 23.8 13.8 6.1 32 9.1 N 48 61 26 33 1010.4 1010.4 0.0
22/11:00am 22.5 13.6 6.7 36 8.1 N 43 54 23 29 1011.3 1011.3 0.0
22/10:30am 21.1 13.8 7.3 41 7.1 N 35 48 19 26 1011.8 1011.8 0.0
22/10:00am 19.6 12.0 7.7 46 6.1 N 37 50 20 27 1012.2 1012.2 0.0
22/09:30am 17.5 10.5 8.6 56 4.6 N 35 50 19 27 1012.1 1012.1 0.0

Other Formats:

Comma delimited format used in spreadsheet applications
http://www.bom.gov.au/fwo/IDS60801/IDS60801.94690.axf

JavaScript Object Notation format (JSON) in row-major order
http://www.bom.gov.au/fwo/IDS60801/IDS60801.94690.json